Time;durP1;ratioP1;P1;durP2;ratioP2;P2;SDS_P1;SDS_P2;PMS_P1;PMS_P2;Temp;Humidity;BMP_temperature;BMP_pressure;BME280_temperature;BME280_humidity;BME280_pressure;Samples;Min_cycle;Max_cycle;Signal;HPM_P1;HPM_P2
2023/12/09 00:05:18;;;;;;;4.03;2.87;;;;;;;;;;20546178;28;20228;-86
2023/12/09 00:15:20;;;;;;;5.10;3.23;;;;;;;;;;20539821;28;20229;-82
2023/12/09 00:25:21;;;;;;;4.27;2.93;;;;;;;;;;20576064;28;20251;-83
2023/12/09 00:35:23;;;;;;;4.00;2.67;;;;;;;;;;20576341;28;20271;-83
2023/12/09 00:45:25;;;;;;;4.37;2.37;;;;;;;;;;20541933;28;20228;-84
2023/12/09 00:55:27;;;;;;;3.23;2.37;;;;;;;;;;20558317;28;20275;-83
2023/12/09 01:05:28;;;;;;;7.70;2.83;;;;;;;;;;20584683;28;20698;-83
2023/12/09 01:15:30;;;;;;;4.60;2.50;;;;;;;;;;20556598;28;20683;-84
2023/12/09 01:25:32;;;;;;;5.77;2.77;;;;;;;;;;20579491;28;20294;-85
2023/12/09 01:35:33;;;;;;;4.47;2.47;;;;;;;;;;20541229;28;20557;-84
2023/12/09 01:45:35;;;;;;;4.57;2.70;;;;;;;;;;20589240;28;20271;-84
2023/12/09 01:55:38;;;;;;;5.80;3.63;;;;;;;;;;20585516;28;20574;-85
2023/12/09 02:05:40;;;;;;;5.27;3.00;;;;;;;;;;20549319;28;20291;-84
2023/12/09 02:16:00;;;;;;;4.97;3.13;;;;;;;;;;20565183;28;20287;-84
2023/12/09 02:26:07;;;;;;;4.97;2.90;;;4.40;99.90;;;;;;20549084;28;20242;-84
2023/12/09 02:36:10;;;;;;;5.07;3.10;;;;;;;;;;20551913;28;20749;-84
2023/12/09 02:46:13;;;;;;;4.33;3.10;;;;;;;;;;20566644;28;20232;-84
2023/12/09 02:56:15;;;;;;;4.80;2.70;;;;;;;;;;20614341;28;20266;-84
2023/12/09 03:06:17;;;;;;;5.20;3.10;;;;;;;;;;20551360;28;20376;-85
2023/12/09 03:16:18;;;;;;;3.80;2.53;;;;;;;;;;20529585;28;20246;-83
2023/12/09 03:26:20;;;;;;;3.03;1.67;;;;;;;;;;20576601;28;20713;-83
2023/12/09 03:36:22;;;;;;;5.73;1.30;;;;;;;;;;20543371;28;20287;-84
2023/12/09 03:46:24;;;;;;;3.40;1.10;;;;;;;;;;20563505;28;20224;-84
2023/12/09 03:56:26;;;;;;;4.60;1.10;;;;;;;;;;20561144;28;20235;-83
2023/12/09 04:06:27;;;;;;;1.97;0.87;;;;;;;;;;20511035;28;20224;-83
2023/12/09 04:16:29;;;;;;;2.20;0.93;;;;;;;;;;20558503;28;20719;-84
2023/12/09 04:26:31;;;;;;;2.10;1.13;;;;;;;;;;20578273;28;20566;-84
2023/12/09 04:36:32;;;;;;;4.87;1.77;;;;;;;;;;20674411;28;20278;-84
2023/12/09 04:46:34;;;;;;;5.80;2.67;;;;;;;;;;20605835;28;20220;-83
2023/12/09 04:56:36;;;;;;;4.43;2.53;;;;;;;;;;20638242;28;20725;-85
2023/12/09 05:06:38;;;;;;;5.27;2.97;;;;;;;;;;20613700;28;20251;-85
2023/12/09 05:16:39;;;;;;;7.57;3.57;;;;;;;;;;20650402;28;20208;-84
2023/12/09 05:26:41;;;;;;;3.30;2.57;;;;;;;;;;20667045;28;20351;-85
2023/12/09 05:36:43;;;;;;;5.60;3.10;;;;;;;;;;20648250;28;20282;-85
2023/12/09 05:46:44;;;;;;;5.40;2.87;;;;;;;;;;20648284;28;20697;-85
2023/12/09 05:56:49;;;;;;;4.03;2.70;;;;;;;;;;20628329;28;20219;-85
2023/12/09 06:06:51;;;;;;;4.33;2.20;;;;;;;;;;20641349;28;20280;-86
2023/12/09 06:16:52;;;;;;;4.07;2.90;;;;;;;;;;20692586;28;20220;-84
2023/12/09 06:26:54;;;;;;;5.47;3.17;;;;;;;;;;20644428;28;20223;-83
2023/12/09 06:36:56;;;;;;;4.57;2.90;;;;;;;;;;20638514;28;20270;-83
2023/12/09 06:46:57;;;;;;;5.97;2.37;;;;;;;;;;20620775;28;20243;-85
2023/12/09 06:56:59;;;;;;;7.70;3.47;;;;;;;;;;20601483;28;20713;-85
2023/12/09 07:07:01;;;;;;;4.10;2.87;;;;;;;;;;20635984;28;20619;-85
2023/12/09 07:17:03;;;;;;;4.40;2.50;;;;;;;;;;20624553;28;20677;-85
2023/12/09 07:27:04;;;;;;;6.43;4.00;;;;;;;;;;20606561;28;20624;-85
2023/12/09 07:37:06;;;;;;;5.57;3.30;;;;;;;;;;20654326;28;20623;-85
2023/12/09 07:47:08;;;;;;;7.87;2.80;;;;;;;;;;20620066;28;20282;-86
2023/12/09 07:57:11;;;;;;;2.93;2.20;;;;;;;;;;20625042;28;20236;-85
2023/12/09 08:07:13;;;;;;;4.90;2.70;;;;;;;;;;20631627;28;20290;-83
2023/12/09 08:17:14;;;;;;;4.10;2.57;;;;;;;;;;20623094;28;20212;-82
2023/12/09 08:27:16;;;;;;;3.40;2.33;;;;;;;;;;20655175;28;20224;-84
2023/12/09 08:37:25;;;;;;;10.03;2.23;;;;;;;;;;20626808;28;20224;-85
2023/12/09 08:47:26;;;;;;;8.37;3.40;;;;;;;;;;20633054;28;20220;-85
2023/12/09 08:57:28;;;;;;;45.00;25.47;;;;;;;;;;20644076;28;20231;-85
2023/12/09 09:07:30;;;;;;;12.13;5.67;;;;;;;;;;20619757;28;20243;-84
2023/12/09 09:17:31;;;;;;;4.47;2.53;;;;;;;;;;20637173;28;20212;-84
2023/12/09 09:27:33;;;;;;;3.93;2.30;;;;;;;;;;20643658;28;20228;-84
2023/12/09 09:37:36;;;;;;;4.17;2.37;;;;;;;;;;20666871;28;20278;-85
2023/12/09 09:47:37;;;;;;;8.87;3.43;;;;;;;;;;20628435;28;20574;-84
2023/12/09 09:57:40;;;;;;;4.00;2.50;;;;;;;;;;20653999;28;20275;-85
2023/12/09 10:07:42;;;;;;;2.87;1.67;;;;;;;;;;20634396;28;20658;-84
2023/12/09 10:17:44;;;;;;;3.53;1.67;;;;;;;;;;20632775;28;20278;-87
2023/12/09 10:27:46;;;;;;;4.50;2.00;;;;;;;;;;20654285;28;20686;-85
2023/12/09 10:37:49;;;;;;;1.90;1.30;;;;;;;;;;20654521;28;20207;-85
2023/12/09 10:47:51;;;;;;;2.67;1.53;;;;;;;;;;20676915;28;20764;-85
2023/12/09 10:57:54;;;;;;;5.50;2.30;;;;;;;;;;20633738;28;20740;-84
2023/12/09 11:07:57;;;;;;;1.27;1.03;;;5.80;99.90;;;;;;20654922;28;20239;-84
2023/12/09 11:18:07;;;;;;;3.50;1.90;;;;;;;;;;20627243;28;20223;-85
2023/12/09 11:28:18;;;;;;;1.67;1.20;;;;;;;;;;20629476;28;20259;-84
2023/12/09 11:38:20;;;;;;;3.33;2.10;;;;;;;;;;20665624;28;20252;-85
2023/12/09 11:48:22;;;;;;;2.33;1.70;;;;;;;;;;20614717;28;20220;-85
2023/12/09 11:58:24;;;;;;;2.20;1.67;;;;;;;;;;20629913;28;20219;-85
2023/12/09 12:08:25;;;;;;;2.80;1.80;;;;;;;;;;20615048;28;20228;-85
2023/12/09 12:18:32;;;;;;;3.73;1.40;;;6.40;99.90;;;;;;20648139;28;20593;-84
2023/12/09 12:28:34;;;;;;;3.27;1.40;;;;;;;;;;20706069;28;20228;-83
2023/12/09 12:38:36;;;;;;;3.03;1.20;;;;;;;;;;20650834;28;20227;-84
2023/12/09 12:48:38;;;;;;;4.83;1.27;;;;;;;;;;20706404;28;20235;-84
2023/12/09 12:58:40;;;;;;;0.50;0.50;;;;;;;;;;20645230;28;20224;-83
2023/12/09 13:08:42;;;;;;;0.87;0.60;;;;;;;;;;20628211;28;20606;-83
2023/12/09 13:18:44;;;;;;;1.60;0.50;;;;;;;;;;20659165;28;20228;-84
2023/12/09 13:28:47;;;;;;;1.43;0.43;;;;;;;;;;20634496;28;20233;-84
2023/12/09 13:38:51;;;;;;;1.87;0.90;;;;;;;;;;20668535;28;20223;-86
2023/12/09 13:48:53;;;;;;;1.17;0.60;;;;;;;;;;20636365;28;20215;-86
2023/12/09 13:58:55;;;;;;;0.60;0.33;;;;;;;;;;20644669;28;20747;-80
2023/12/09 14:08:57;;;;;;;3.60;0.87;;;;;;;;;;20687270;28;20243;-81
2023/12/09 14:18:58;;;;;;;1.73;1.00;;;;;;;;;;20678393;28;20565;-80
2023/12/09 14:29:00;;;;;;;1.77;1.00;;;;;;;;;;20671561;28;20235;-81
2023/12/09 14:39:03;;;;;;;2.20;1.00;;;;;;;;;;20659170;28;20224;-83
2023/12/09 14:49:05;;;;;;;1.70;0.70;;;;;;;;;;20650764;28;20220;-81
2023/12/09 14:59:09;;;;;;;0.60;0.30;;;;;;;;;;20661575;28;20224;-81
2023/12/09 15:09:12;;;;;;;0.40;0.20;;;;;;;;;;20661711;28;20563;-80
2023/12/09 15:19:14;;;;;;;0.57;0.40;;;;;;;;;;20680876;28;20752;-80
2023/12/09 15:29:15;;;;;;;0.77;0.40;;;;;;;;;;20661342;28;20223;-81
2023/12/09 15:39:18;;;;;;;0.10;0.10;;;;;;;;;;20601362;28;20705;-81
2023/12/09 15:49:19;;;;;;;1.97;0.50;;;;;;;;;;20665853;28;20282;-81
2023/12/09 15:59:22;;;;;;;0.30;0.30;;;;;;;;;;20647925;28;20283;-81
2023/12/09 16:09:23;;;;;;;0.20;0.17;;;;;;;;;;20658001;28;20282;-81
2023/12/09 16:19:25;;;;;;;1.33;0.43;;;;;;;;;;20638570;28;20224;-81
2023/12/09 16:29:27;;;;;;;0.80;0.27;;;;;;;;;;20640929;28;20260;-82
2023/12/09 16:39:29;;;;;;;1.10;0.60;;;;;;;;;;20625561;28;20298;-81
2023/12/09 16:49:31;;;;;;;0.10;0.10;;;;;;;;;;20653906;28;20519;-81
2023/12/09 16:59:33;;;;;;;0.30;0.27;;;;;;;;;;20648854;28;20618;-81
2023/12/09 17:09:35;;;;;;;1.57;0.90;;;;;;;;;;20679417;28;20220;-81
2023/12/09 17:19:36;;;;;;;0.80;0.27;;;;;;;;;;20671427;28;20219;-81
2023/12/09 17:29:39;;;;;;;0.30;0.20;;;;;;;;;;20672651;28;20243;-81
2023/12/09 17:39:42;;;;;;;0.20;0.20;;;;;;;;;;20650791;28;20211;-81
2023/12/09 17:49:44;;;;;;;0.63;0.30;;;;;;;;;;20660926;28;20278;-80
2023/12/09 17:59:46;;;;;;;0.33;0.20;;;;;;;;;;20657253;28;20219;-80
2023/12/09 18:09:48;;;;;;;0.30;0.10;;;;;;;;;;20629164;28;20530;-81
2023/12/09 18:19:50;;;;;;;0.27;0.20;;;;;;;;;;20657360;28;20215;-80
2023/12/09 18:29:52;;;;;;;0.37;0.20;;;;;;;;;;20665838;28;20626;-80
2023/12/09 18:39:54;;;;;;;0.50;0.37;;;;;;;;;;20662886;28;20211;-80
2023/12/09 18:49:56;;;;;;;1.90;0.50;;;;;;;;;;20658932;28;20224;-80
2023/12/09 18:59:57;;;;;;;0.50;0.30;;;;;;;;;;20617926;28;20271;-81
2023/12/09 19:10:00;;;;;;;0.57;0.40;;;;;;;;;;20646720;28;20254;-81
2023/12/09 19:20:05;;;;;;;0.63;0.50;;;;;;;;;;20637163;28;20596;-81
2023/12/09 19:30:09;;;;;;;0.60;0.30;;;;;;;;;;20675904;28;20234;-82
2023/12/09 19:40:11;;;;;;;0.10;0.10;;;;;;;;;;20365067;28;20243;-80
2023/12/09 19:50:13;;;;;;;0.10;0.10;;;;;;;;;;20678012;28;20219;-81
2023/12/09 20:00:15;;;;;;;0.17;0.10;;;;;;;;;;20658461;28;20216;-81
2023/12/09 20:10:16;;;;;;;0.40;0.20;;;;;;;;;;20634294;28;20235;-81
2023/12/09 20:20:18;;;;;;;0.10;0.10;;;;;;;;;;20631678;28;20211;-81
2023/12/09 20:30:23;;;;;;;0.33;0.20;;;;;;;;;;20649841;28;20701;-81
2023/12/09 20:40:25;;;;;;;0.20;0.10;;;;;;;;;;20668750;28;20231;-82
2023/12/09 20:50:26;;;;;;;0.10;0.10;;;;;;;;;;20663287;28;20246;-81
2023/12/09 21:00:28;;;;;;;0.50;0.20;;;;;;;;;;20632148;28;20263;-82
2023/12/09 21:10:30;;;;;;;0.10;0.10;;;;;;;;;;20685036;28;20654;-82
2023/12/09 21:20:32;;;;;;;0.20;0.20;;;;;;;;;;20654392;28;20232;-81
2023/12/09 21:30:33;;;;;;;0.10;0.10;;;;;;;;;;20671986;28;20681;-81
2023/12/09 21:40:35;;;;;;;0.20;0.20;;;;;;;;;;20691767;28;20220;-80
2023/12/09 21:50:38;;;;;;;0.43;0.30;;;;;;;;;;20673673;28;20227;-81
2023/12/09 22:00:40;;;;;;;0.93;0.53;;;;;;;;;;20685499;28;20262;-81
2023/12/09 22:10:41;;;;;;;2.57;0.90;;;;;;;;;;20671110;28;20224;-81
2023/12/09 22:20:43;;;;;;;1.50;0.40;;;;;;;;;;20619361;28;20220;-82
2023/12/09 22:30:45;;;;;;;4.07;0.93;;;;;;;;;;20682123;28;20251;-81
2023/12/09 22:40:46;;;;;;;5.60;1.13;;;;;;;;;;20665859;28;20638;-81
2023/12/09 22:50:48;;;;;;;2.60;0.77;;;;;;;;;;20675217;28;20224;-82
2023/12/09 23:00:51;;;;;;;2.40;1.13;;;;;;;;;;20662790;28;20270;-82
2023/12/09 23:10:53;;;;;;;6.57;1.40;;;;;;;;;;20663445;28;20592;-81
2023/12/09 23:20:55;;;;;;;0.87;0.50;;;;;;;;;;20662217;28;20592;-82
2023/12/09 23:30:57;;;;;;;4.33;1.50;;;;;;;;;;20677102;28;20271;-82
2023/12/09 23:41:00;;;;;;;3.47;1.23;;;;;;;;;;20665316;28;20628;-82
2023/12/09 23:51:01;;;;;;;5.47;1.00;;;;;;;;;;20659839;28;20219;-81
